createdAt,value
2018-06-12T00:01:16.081Z,8.13
2018-06-12T00:03:43.224Z,8.13
2018-06-12T00:06:10.391Z,7.23
2018-06-12T00:08:37.575Z,7.60
2018-06-12T00:11:04.793Z,7.60
2018-06-12T00:13:32.080Z,8.83
2018-06-12T00:15:59.418Z,8.40
2018-06-12T00:18:26.534Z,8.33
2018-06-12T00:20:53.741Z,7.80
2018-06-12T00:23:20.874Z,8.17
2018-06-12T00:25:47.979Z,8.23
2018-06-12T00:28:15.241Z,8.43
2018-06-12T00:30:42.361Z,8.10
2018-06-12T00:33:09.472Z,8.43
2018-06-12T00:35:36.737Z,9.70
2018-06-12T00:38:03.952Z,8.67
2018-06-12T00:40:31.210Z,7.97
2018-06-12T00:42:58.392Z,8.47
2018-06-12T00:45:25.511Z,8.03
2018-06-12T00:47:52.628Z,8.10
2018-06-12T00:50:20.155Z,8.37
2018-06-12T00:52:47.251Z,11.03
2018-06-12T00:55:14.352Z,8.40
2018-06-12T00:57:41.476Z,8.80
2018-06-12T01:00:08.663Z,9.63
2018-06-12T01:02:35.880Z,8.77
2018-06-12T01:05:03.185Z,8.30
2018-06-12T01:07:30.442Z,8.00
2018-06-12T01:09:57.549Z,8.30
2018-06-12T01:12:28.502Z,8.07
2018-06-12T01:14:55.729Z,8.60
2018-06-12T01:17:22.868Z,9.97
2018-06-12T01:19:50.139Z,9.00
2018-06-12T01:22:17.232Z,9.23
2018-06-12T01:24:44.353Z,9.73
2018-06-12T01:27:11.560Z,8.77
2018-06-12T01:29:38.681Z,8.20
2018-06-12T01:32:05.832Z,9.03
2018-06-12T01:34:33.084Z,9.90
2018-06-12T01:37:00.292Z,9.67
2018-06-12T01:39:27.400Z,12.27
2018-06-12T01:41:54.585Z,9.00
2018-06-12T01:44:21.711Z,13.23
2018-06-12T01:46:48.807Z,9.30
2018-06-12T01:49:15.971Z,8.97
2018-06-12T01:51:43.147Z,10.10
2018-06-12T01:54:10.274Z,9.77
2018-06-12T01:56:37.470Z,9.30
2018-06-12T01:59:04.675Z,9.03
2018-06-12T02:01:31.905Z,8.77
2018-06-12T02:03:59.095Z,10.93
2018-06-12T02:06:26.196Z,9.63
2018-06-12T02:08:53.302Z,9.57
2018-06-12T02:11:20.580Z,9.80
2018-06-12T02:13:47.721Z,10.87
2018-06-12T02:16:14.807Z,10.67
2018-06-12T02:18:41.977Z,13.60
2018-06-12T02:21:09.084Z,10.03
2018-06-12T02:23:36.265Z,12.07
2018-06-12T02:26:03.495Z,11.93
2018-06-12T02:28:30.725Z,13.17
2018-06-12T02:30:57.864Z,10.63
2018-06-12T02:33:25.204Z,13.37
2018-06-12T02:35:52.402Z,10.10
2018-06-12T02:38:19.488Z,10.93
2018-06-12T02:40:46.650Z,9.70
2018-06-12T02:43:13.767Z,9.30
2018-06-12T02:45:40.907Z,10.03
2018-06-12T02:48:08.204Z,12.17
2018-06-12T02:50:35.436Z,9.87
2018-06-12T02:53:02.688Z,8.97
2018-06-12T02:55:29.981Z,9.23
2018-06-12T02:57:57.099Z,9.83
2018-06-12T03:00:24.211Z,11.20
2018-06-12T03:02:51.359Z,10.23
2018-06-12T03:05:18.700Z,8.40
2018-06-12T03:07:45.818Z,11.23
2018-06-12T03:10:13.520Z,8.87
2018-06-12T03:12:40.624Z,10.67
2018-06-12T03:15:08.364Z,9.13
2018-06-12T03:17:35.627Z,8.97
2018-06-12T03:20:02.836Z,8.83
2018-06-12T03:22:30.078Z,7.00
2018-06-12T03:24:57.242Z,7.37
2018-06-12T03:27:24.373Z,10.80
2018-06-12T03:29:51.498Z,7.40
2018-06-12T03:32:18.689Z,6.23
2018-06-12T03:34:45.819Z,7.60
2018-06-12T03:37:12.943Z,6.17
2018-06-12T03:39:40.084Z,6.30
2018-06-12T03:42:08.269Z,8.17
2018-06-12T03:44:35.446Z,8.03
2018-06-12T03:47:02.706Z,6.17
2018-06-12T03:49:29.994Z,8.70
2018-06-12T03:51:57.349Z,6.43
2018-06-12T03:54:24.568Z,6.50
2018-06-12T03:56:51.682Z,6.70
2018-06-12T03:59:18.825Z,7.50
2018-06-12T04:01:57.894Z,7.13
2018-06-12T04:04:25.115Z,6.50
2018-06-12T04:06:52.225Z,5.73
2018-06-12T04:09:19.445Z,8.47
2018-06-12T04:11:46.614Z,6.97
2018-06-12T04:14:13.791Z,6.90
2018-06-12T04:16:41.200Z,5.93
2018-06-12T04:19:08.344Z,5.90
2018-06-12T04:21:35.649Z,7.00
2018-06-12T04:24:02.898Z,5.83
2018-06-12T04:26:30.166Z,6.23
2018-06-12T04:28:58.087Z,7.43
2018-06-12T04:31:25.282Z,8.77
2018-06-12T04:33:52.413Z,8.40
2018-06-12T04:36:19.521Z,9.60
2018-06-12T04:38:46.744Z,8.13
2018-06-12T04:41:13.869Z,6.63
2018-06-12T04:43:41.572Z,6.97
2018-06-12T04:46:08.816Z,7.57
2018-06-12T04:48:35.939Z,7.53
2018-06-12T04:51:03.639Z,8.03
2018-06-12T04:53:30.897Z,8.13
2018-06-12T04:55:58.037Z,9.60
2018-06-12T04:58:25.181Z,6.43
2018-06-12T05:00:52.345Z,7.23
2018-06-12T05:03:22.568Z,6.10
2018-06-12T05:05:49.808Z,5.57
2018-06-12T05:08:16.956Z,8.07
2018-06-12T05:10:44.060Z,7.27
2018-06-12T05:13:11.544Z,9.33
2018-06-12T05:15:38.757Z,5.60
2018-06-12T05:18:05.974Z,6.87
2018-06-12T05:20:33.501Z,8.07
2018-06-12T05:23:00.970Z,5.97
2018-06-12T05:25:28.156Z,6.30
2018-06-12T05:27:55.247Z,5.90
2018-06-12T05:30:23.252Z,7.53
2018-06-12T05:32:50.378Z,6.40
2018-06-12T05:35:17.464Z,9.93
2018-06-12T05:37:44.608Z,10.07
2018-06-12T05:40:11.839Z,8.80
2018-06-12T05:42:40.992Z,7.93
2018-06-12T05:45:08.404Z,9.00
2018-06-12T05:47:35.711Z,6.60
2018-06-12T05:50:03.243Z,8.37
2018-06-12T05:52:31.341Z,7.97
2018-06-12T05:54:58.596Z,6.17
2018-06-12T05:57:25.695Z,8.17
2018-06-12T05:59:52.864Z,9.97
2018-06-12T06:02:20.020Z,7.70
2018-06-12T06:04:47.158Z,9.07
2018-06-12T06:07:14.310Z,8.27
2018-06-12T06:09:41.438Z,7.13
2018-06-12T06:12:08.827Z,6.80
2018-06-12T06:14:36.265Z,7.07
2018-06-12T06:17:03.762Z,9.53
2018-06-12T06:19:31.778Z,9.47
2018-06-12T06:21:59.331Z,9.13
2018-06-12T06:24:26.562Z,7.43
2018-06-12T06:26:53.796Z,7.03
2018-06-12T06:29:21.099Z,6.13
2018-06-12T06:31:49.141Z,9.43
2018-06-12T06:34:16.401Z,9.80
2018-06-12T06:36:43.596Z,10.43
2018-06-12T06:39:10.830Z,6.97
2018-06-12T06:41:38.267Z,9.40
2018-06-12T06:44:06.015Z,10.17
2018-06-12T06:46:33.649Z,7.27
2018-06-12T06:49:02.063Z,9.40
2018-06-12T06:51:29.587Z,9.67
2018-06-12T06:53:56.786Z,7.93
2018-06-12T06:56:23.913Z,9.67
2018-06-12T06:58:51.132Z,9.67
2018-06-12T07:01:18.345Z,6.63
2018-06-12T07:03:45.479Z,7.83
2018-06-12T07:06:12.653Z,9.40
2018-06-12T07:08:39.880Z,8.93
2018-06-12T07:11:07.281Z,9.30
2018-06-12T07:13:34.786Z,9.17
2018-06-12T07:16:02.318Z,8.43
2018-06-12T07:18:30.054Z,7.43
2018-06-12T07:21:04.245Z,11.93
2018-06-12T07:23:32.008Z,8.30
2018-06-12T07:25:59.649Z,7.57
2018-06-12T07:28:26.859Z,8.37
2018-06-12T07:30:57.792Z,12.27
2018-06-12T07:33:25.975Z,8.27
2018-06-12T07:35:53.176Z,6.23
2018-06-12T07:38:20.427Z,5.60
2018-06-12T07:40:47.599Z,7.60
2018-06-12T07:43:14.771Z,4.97
2018-06-12T07:45:42.046Z,5.80
2018-06-12T07:48:09.462Z,5.37
2018-06-12T07:50:36.819Z,6.17
2018-06-12T07:53:04.282Z,5.57
2018-06-12T07:55:32.389Z,3.97
2018-06-12T07:57:59.913Z,4.13
2018-06-12T08:00:27.101Z,4.03
2018-06-12T08:02:54.253Z,4.33
2018-06-12T08:05:21.410Z,5.17
2018-06-12T08:07:48.504Z,3.93
2018-06-12T08:10:15.794Z,5.90
2018-06-12T08:12:42.978Z,7.47
2018-06-12T08:15:10.316Z,7.10
2018-06-12T08:17:37.618Z,6.67
2018-06-12T08:20:05.062Z,6.10
2018-06-12T08:22:32.810Z,6.57
2018-06-12T08:25:01.107Z,6.03
2018-06-12T08:27:28.334Z,5.33
2018-06-12T08:29:55.697Z,7.33
2018-06-12T08:32:22.847Z,4.10
2018-06-12T08:34:50.122Z,6.23
2018-06-12T08:37:17.312Z,5.53
2018-06-12T08:39:44.497Z,6.17
2018-06-12T08:42:11.716Z,4.50
2018-06-12T08:44:39.043Z,4.70
2018-06-12T08:47:06.730Z,6.43
2018-06-12T08:49:34.527Z,5.13
2018-06-12T08:52:02.313Z,4.83
2018-06-12T08:54:30.172Z,4.57
2018-06-12T08:56:57.400Z,5.70
2018-06-12T08:59:24.560Z,3.77
2018-06-12T09:01:51.791Z,7.93
2018-06-12T09:04:19.006Z,6.83
2018-06-12T09:06:46.247Z,7.70
2018-06-12T09:09:13.429Z,5.10
2018-06-12T09:11:40.585Z,5.07
2018-06-12T09:14:08.000Z,5.97
2018-06-12T09:16:35.363Z,5.70
2018-06-12T09:19:03.608Z,5.30
2018-06-12T09:21:31.342Z,8.30
2018-06-12T09:23:58.812Z,7.13
2018-06-12T09:26:26.026Z,6.30
2018-06-12T09:28:53.241Z,5.83
2018-06-12T09:31:20.444Z,9.93
2018-06-12T09:33:47.571Z,6.93
2018-06-12T09:36:20.522Z,6.93
2018-06-12T09:38:47.649Z,6.73
2018-06-12T09:41:14.894Z,7.80
2018-06-12T09:43:42.112Z,6.13
2018-06-12T09:46:09.612Z,6.17
2018-06-12T09:48:37.246Z,7.67
2018-06-12T09:51:04.759Z,6.87
2018-06-12T09:53:32.659Z,6.23
2018-06-12T09:56:00.755Z,10.57
2018-06-12T09:58:28.660Z,9.67
2018-06-12T10:01:01.552Z,5.00
2018-06-12T10:03:29.204Z,6.87
2018-06-12T10:05:56.459Z,5.00
2018-06-12T10:08:23.569Z,7.23
2018-06-12T10:10:50.886Z,6.33
2018-06-12T10:13:18.010Z,5.97
2018-06-12T10:15:45.204Z,6.30
2018-06-12T10:18:12.416Z,4.70
2018-06-12T10:20:39.812Z,5.90
2018-06-12T10:23:07.453Z,5.23
2018-06-12T10:25:34.987Z,5.90
2018-06-12T10:28:02.818Z,4.90
2018-06-12T10:30:31.903Z,7.17
2018-06-12T10:32:59.718Z,5.00
2018-06-12T10:35:27.140Z,5.73
2018-06-12T10:37:54.269Z,9.27
2018-06-12T10:40:21.515Z,7.33
2018-06-12T10:42:48.637Z,6.10
2018-06-12T10:45:16.107Z,3.90
2018-06-12T10:47:43.349Z,4.53
2018-06-12T10:50:10.600Z,5.57
2018-06-12T10:52:38.161Z,4.17
2018-06-12T10:55:06.481Z,3.97
2018-06-12T10:57:34.566Z,4.40
2018-06-12T11:00:02.418Z,3.10
2018-06-12T11:02:32.075Z,5.07
2018-06-12T11:04:59.595Z,3.73
2018-06-12T11:07:26.850Z,5.47
2018-06-12T11:09:54.116Z,4.53
2018-06-12T11:12:21.283Z,3.67
2018-06-12T11:14:48.502Z,5.27
2018-06-12T11:17:15.765Z,6.47
2018-06-12T11:19:42.961Z,4.20
2018-06-12T11:22:16.468Z,3.63
2018-06-12T11:24:43.607Z,4.10
2018-06-12T11:27:10.793Z,4.27
2018-06-12T11:29:38.371Z,6.07
2018-06-12T11:32:06.047Z,5.37
2018-06-12T11:34:34.143Z,4.47
2018-06-12T11:37:01.997Z,4.17
2018-06-12T11:39:29.744Z,5.07
2018-06-12T11:41:57.136Z,4.77
2018-06-12T11:44:25.301Z,4.10
2018-06-12T11:46:52.499Z,7.00
2018-06-12T11:49:19.720Z,7.17
2018-06-12T11:51:46.904Z,6.37
2018-06-12T11:54:14.068Z,6.53
2018-06-12T11:56:41.284Z,4.63
2018-06-12T11:59:08.847Z,4.53
2018-06-12T12:01:36.272Z,5.00
2018-06-12T12:04:03.951Z,5.43
2018-06-12T12:06:33.071Z,6.30
2018-06-12T12:09:01.062Z,4.57
2018-06-12T12:11:28.246Z,3.43
2018-06-12T12:13:55.494Z,6.30
2018-06-12T12:16:22.632Z,7.87
2018-06-12T12:18:49.929Z,5.23
2018-06-12T12:21:17.122Z,5.00
2018-06-12T12:23:44.330Z,4.97
2018-06-12T12:26:11.472Z,6.43
2018-06-12T12:28:39.051Z,5.70
2018-06-12T12:31:06.483Z,5.20
2018-06-12T12:33:34.305Z,9.20
2018-06-12T12:36:02.410Z,8.40
2018-06-12T12:38:30.328Z,5.27
2018-06-12T12:40:57.479Z,6.83
2018-06-12T12:43:24.653Z,6.33
2018-06-12T12:45:51.765Z,3.70
2018-06-12T12:48:19.051Z,6.23
2018-06-12T12:50:46.199Z,4.77
2018-06-12T12:53:13.332Z,5.40
2018-06-12T12:55:40.495Z,5.73
2018-06-12T12:58:08.193Z,4.27
2018-06-12T13:00:36.085Z,5.90
2018-06-12T13:03:03.680Z,5.80
2018-06-12T13:05:31.694Z,5.00
2018-06-12T13:07:59.299Z,6.40
2018-06-12T13:10:26.523Z,4.43
2018-06-12T13:12:53.761Z,4.73
2018-06-12T13:15:20.941Z,4.87
2018-06-12T13:17:48.077Z,6.00
2018-06-12T13:20:16.317Z,4.13
2018-06-12T13:22:43.484Z,3.83
2018-06-12T13:25:10.652Z,5.67
2018-06-12T13:27:38.965Z,4.40
2018-06-12T13:30:06.571Z,4.33
2018-06-12T13:32:33.979Z,6.77
2018-06-12T13:35:02.627Z,5.17
2018-06-12T13:37:31.082Z,4.00
2018-06-12T13:40:01.130Z,6.30
2018-06-12T13:42:28.572Z,5.50
2018-06-12T13:44:55.790Z,5.30
2018-06-12T13:47:22.916Z,5.90
2018-06-12T13:49:50.555Z,5.37
2018-06-12T13:52:17.688Z,4.70
2018-06-12T13:54:45.902Z,6.63
2018-06-12T13:57:14.872Z,4.23
2018-06-12T13:59:43.104Z,5.87
2018-06-12T14:02:10.596Z,3.63
2018-06-12T14:04:38.199Z,3.73
2018-06-12T14:07:05.668Z,5.27
2018-06-12T14:09:33.872Z,7.13
2018-06-12T14:12:02.269Z,3.90
2018-06-12T14:14:30.319Z,5.10
2018-06-12T14:16:57.548Z,3.77
2018-06-12T14:19:24.766Z,6.63
2018-06-12T14:21:51.968Z,5.07
2018-06-12T14:24:19.112Z,4.70
2018-06-12T14:26:46.433Z,4.13
2018-06-12T14:29:13.548Z,5.30
2018-06-12T14:31:40.839Z,3.87
2018-06-12T14:34:08.414Z,6.07
2018-06-12T14:36:35.867Z,7.50
2018-06-12T14:39:04.981Z,5.03
2018-06-12T14:41:33.330Z,3.10
2018-06-12T14:44:01.484Z,6.20
2018-06-12T14:46:29.756Z,3.27
2018-06-12T14:48:57.200Z,5.40
2018-06-12T14:51:24.420Z,6.90
2018-06-12T14:53:51.556Z,3.30
2018-06-12T14:56:18.748Z,5.40
2018-06-12T14:58:45.847Z,4.20
2018-06-12T15:01:12.983Z,6.27
2018-06-12T15:03:41.196Z,8.07
2018-06-12T15:06:08.803Z,6.30
2018-06-12T15:08:36.188Z,3.97
2018-06-12T15:11:04.278Z,5.37
2018-06-12T15:13:32.395Z,4.00
2018-06-12T15:16:00.168Z,5.10
2018-06-12T15:18:27.372Z,3.83
2018-06-12T15:20:54.507Z,4.03
2018-06-12T15:23:21.631Z,2.58
2018-06-12T15:25:48.860Z,8.68
2018-06-12T15:28:16.037Z,4.53
2018-06-12T15:30:43.173Z,5.37
2018-06-12T15:33:10.484Z,4.78
2018-06-12T15:35:37.972Z,3.72
2018-06-12T15:38:05.920Z,6.55
2018-06-12T15:40:33.779Z,3.70
2018-06-12T15:43:02.374Z,2.83
2018-06-12T15:45:30.032Z,4.00
2018-06-12T15:47:57.275Z,4.90
2018-06-12T15:50:24.408Z,4.10
2018-06-12T15:52:51.588Z,3.90
2018-06-12T15:55:19.757Z,3.25
2018-06-12T15:57:46.889Z,4.27
2018-06-12T16:00:14.039Z,4.13
2018-06-12T16:02:41.411Z,4.77
2018-06-12T16:05:08.863Z,5.00
2018-06-12T16:07:36.653Z,4.13
2018-06-12T16:10:04.345Z,5.93
2018-06-12T16:12:32.529Z,3.40
2018-06-12T16:15:00.759Z,4.10
2018-06-12T16:17:28.023Z,4.37
2018-06-12T16:19:55.205Z,3.80
2018-06-12T16:22:22.358Z,5.03
2018-06-12T16:24:49.538Z,3.93
2018-06-12T16:27:16.680Z,3.03
2018-06-12T16:29:44.039Z,3.90
2018-06-12T16:32:11.202Z,6.70
2018-06-12T16:34:38.782Z,3.23
2018-06-12T16:37:06.338Z,4.23
2018-06-12T16:39:34.228Z,3.87
2018-06-12T16:42:02.404Z,6.50
2018-06-12T16:44:29.945Z,3.83
2018-06-12T16:46:57.160Z,3.40
2018-06-12T16:49:24.627Z,2.93
2018-06-12T16:51:51.757Z,3.70
2018-06-12T16:54:18.972Z,5.77
2018-06-12T16:56:46.136Z,6.33
2018-06-12T16:59:13.252Z,3.70
2018-06-12T17:01:40.493Z,4.83
2018-06-12T17:04:07.920Z,4.07
2018-06-12T17:06:35.663Z,5.53
2018-06-12T17:09:06.000Z,3.47
2018-06-12T17:11:34.070Z,3.63
2018-06-12T17:14:02.594Z,4.97
2018-06-12T17:16:30.589Z,5.00
2018-06-12T17:18:57.935Z,5.80
2018-06-12T17:21:25.047Z,5.93
2018-06-12T17:23:52.205Z,4.33
2018-06-12T17:26:19.315Z,5.50
2018-06-12T17:28:46.480Z,3.83
2018-06-12T17:31:14.735Z,4.40
2018-06-12T17:33:42.031Z,3.83
2018-06-12T17:36:09.891Z,3.90
2018-06-12T17:38:38.024Z,2.93
2018-06-12T17:41:06.291Z,5.03
2018-06-12T17:43:34.124Z,5.40
2018-06-12T17:46:02.706Z,6.40
2018-06-12T17:48:31.782Z,3.77
2018-06-12T17:50:59.894Z,3.17
2018-06-12T17:53:27.096Z,4.77
2018-06-12T17:55:54.187Z,4.27
2018-06-12T17:58:21.295Z,4.30
2018-06-12T18:00:48.560Z,4.33
2018-06-12T18:03:15.681Z,3.87
2018-06-12T18:05:43.979Z,5.10
2018-06-12T18:08:11.249Z,6.40
2018-06-12T18:10:39.077Z,3.47
2018-06-12T18:13:06.568Z,4.13
2018-06-12T18:15:35.244Z,3.57
2018-06-12T18:18:03.171Z,3.67
2018-06-12T18:20:32.914Z,4.93
2018-06-12T18:23:01.484Z,5.87
2018-06-12T18:25:28.756Z,5.50
2018-06-12T18:27:55.979Z,4.63
2018-06-12T18:30:23.175Z,5.33
2018-06-12T18:32:50.283Z,3.17
2018-06-12T18:35:17.941Z,3.73
2018-06-12T18:37:45.215Z,4.63
2018-06-12T18:40:12.441Z,5.63
2018-06-12T18:42:39.984Z,3.47
2018-06-12T18:45:07.720Z,6.37
2018-06-12T18:47:36.242Z,3.50
2018-06-12T18:50:06.389Z,4.17
2018-06-12T18:52:36.249Z,5.30
2018-06-12T18:55:05.151Z,6.07
2018-06-12T18:57:35.152Z,4.20
2018-06-12T19:00:05.094Z,5.23
2018-06-12T19:02:35.277Z,6.77
2018-06-12T19:05:04.507Z,4.67
2018-06-12T19:07:35.012Z,4.53
2018-06-12T19:10:05.261Z,4.23
2018-06-12T19:12:35.252Z,3.43
2018-06-12T19:15:04.651Z,8.80
2018-06-12T19:17:33.596Z,4.03
2018-06-12T19:20:04.424Z,4.47
2018-06-12T19:22:35.804Z,6.03
2018-06-12T19:25:04.396Z,4.67
2018-06-12T19:27:33.352Z,3.87
2018-06-12T19:30:03.679Z,7.53
2018-06-12T19:32:33.222Z,5.37
2018-06-12T19:35:01.440Z,5.17
2018-06-12T19:37:28.660Z,5.80
2018-06-12T19:39:55.780Z,8.20
2018-06-12T19:42:22.992Z,7.23
2018-06-12T19:44:50.167Z,4.13
2018-06-12T19:47:17.267Z,5.27
2018-06-12T19:49:44.396Z,6.07
2018-06-12T19:52:11.699Z,5.97
2018-06-12T19:54:39.431Z,6.10
2018-06-12T19:57:07.022Z,6.33
2018-06-12T19:59:35.096Z,6.47
2018-06-12T20:02:03.651Z,4.33
2018-06-12T20:04:31.928Z,5.77
2018-06-12T20:07:00.205Z,4.97
2018-06-12T20:09:27.368Z,5.53
2018-06-12T20:11:54.533Z,6.13
2018-06-12T20:14:21.691Z,6.20
2018-06-12T20:16:48.777Z,4.63
2018-06-12T20:19:15.912Z,6.00
2018-06-12T20:21:43.066Z,4.90
2018-06-12T20:24:10.529Z,5.67
2018-06-12T20:26:38.066Z,4.77
2018-06-12T20:29:05.681Z,4.97
2018-06-12T20:31:33.613Z,4.43
2018-06-12T20:34:01.621Z,4.80
2018-06-12T20:36:30.150Z,6.33
2018-06-12T20:38:57.272Z,4.50
2018-06-12T20:41:24.522Z,5.17
2018-06-12T20:43:51.716Z,9.03
2018-06-12T20:46:18.856Z,8.27
2018-06-12T20:48:46.023Z,6.53
2018-06-12T20:51:13.172Z,6.77
2018-06-12T20:53:40.371Z,7.47
2018-06-12T20:56:08.178Z,6.03
2018-06-12T20:58:35.984Z,7.03
2018-06-12T21:01:03.932Z,4.77
2018-06-12T21:03:32.499Z,6.83
2018-06-12T21:06:01.412Z,6.73
2018-06-12T21:08:29.278Z,5.37
2018-06-12T21:10:56.756Z,6.50
2018-06-12T21:13:24.130Z,5.80
2018-06-12T21:15:51.237Z,5.00
2018-06-12T21:18:18.394Z,5.17
2018-06-12T21:20:46.639Z,4.50
2018-06-12T21:23:13.777Z,6.83
2018-06-12T21:25:40.923Z,6.70
2018-06-12T21:28:08.363Z,6.50
2018-06-12T21:30:36.187Z,5.23
2018-06-12T21:33:04.118Z,5.97
2018-06-12T21:35:32.765Z,8.73
2018-06-12T21:38:01.520Z,6.90
2018-06-12T21:40:28.777Z,6.73
2018-06-12T21:42:55.924Z,7.00
2018-06-12T21:45:23.016Z,5.37
2018-06-12T21:47:50.126Z,5.00
2018-06-12T21:50:17.316Z,7.43
2018-06-12T21:52:44.480Z,4.50
2018-06-12T21:55:11.604Z,5.37
2018-06-12T21:57:39.244Z,5.50
2018-06-12T22:00:07.242Z,5.53
2018-06-12T22:02:34.893Z,5.27
2018-06-12T22:05:03.144Z,7.77
2018-06-12T22:07:30.783Z,5.97
2018-06-12T22:09:58.170Z,7.27
2018-06-12T22:12:25.391Z,6.77
2018-06-12T22:14:52.589Z,4.73
2018-06-12T22:17:19.738Z,5.90
2018-06-12T22:19:46.873Z,6.10
2018-06-12T22:22:13.992Z,7.33
2018-06-12T22:24:41.107Z,7.50
2018-06-12T22:27:08.723Z,7.17
2018-06-12T22:29:36.173Z,5.33
2018-06-12T22:32:04.238Z,5.77
2018-06-12T22:34:32.759Z,6.13
2018-06-12T22:37:01.652Z,5.33
2018-06-12T22:39:28.917Z,6.33
2018-06-12T22:41:56.101Z,5.70
2018-06-12T22:44:23.279Z,5.07
2018-06-12T22:46:50.464Z,6.40
2018-06-12T22:49:17.880Z,7.17
2018-06-12T22:51:45.012Z,4.47
2018-06-12T22:54:12.142Z,5.63
2018-06-12T22:56:39.687Z,6.57
2018-06-12T22:59:07.699Z,5.67
2018-06-12T23:01:35.353Z,5.47
2018-06-12T23:04:03.688Z,5.53
2018-06-12T23:06:32.046Z,6.03
2018-06-12T23:08:59.695Z,6.43
2018-06-12T23:11:27.053Z,6.33
2018-06-12T23:13:56.292Z,7.63
2018-06-12T23:16:23.489Z,5.97
2018-06-12T23:18:50.689Z,5.67
2018-06-12T23:21:58.474Z,4.57
2018-06-12T23:24:25.803Z,4.00
2018-06-12T23:26:52.961Z,6.80
2018-06-12T23:29:20.156Z,6.13
2018-06-12T23:31:47.396Z,5.00
2018-06-12T23:34:14.577Z,6.17
2018-06-12T23:36:41.765Z,5.23
2018-06-12T23:39:09.517Z,5.77
2018-06-12T23:41:37.316Z,4.47
2018-06-12T23:44:04.883Z,4.70
2018-06-12T23:46:33.540Z,4.80
2018-06-12T23:49:01.747Z,6.13
2018-06-12T23:51:29.443Z,4.37
2018-06-12T23:53:56.661Z,5.47
2018-06-12T23:56:24.715Z,4.50
2018-06-12T23:58:51.932Z,6.83
